AirNav   Pilot Hours Calculator
 
 1668 users online  

TS74 Glass Airport
Sanger, Texas, USA

GOING TO SANGER?


FAA INFORMATION EFFECTIVE 07 OCTOBER 2021

Location

FAA Identifier: TS74
Lat/Long: 33-21-45.4120N 097-17-40.0660W
33-21.756867N 097-17.667767W
33.3626144,-97.2944628
(estimated)
Elevation: 810 ft. / 247 m (estimated)
Variation: 07E (1985)
From city: 7 miles W of SANGER, TX
Time zone: UTC -5 (UTC -6 during Standard Time)
Zip code: 76266

Airport Operations

Airport use: Private use. Permission required prior to landing
Activation date: 11/1988
Control tower: no
ARTCC: FORT WORTH CENTER
FSS: FORT WORTH FLIGHT SERVICE STATION
Attendance: UNATNDD
Wind indicator: yes
Segmented circle: no

Airport Communications

WX ASOS at DTO (11 nm SE): 119.325 (940-383-8457)
WX AWOS-3 at LUD (16 nm SW): 118.225 (940-627-2365)
WX AWOS-3 at GLE (18 nm N): 118.375 (940-612-3549)

Nearby radio navigation aids

VOR radial/distance  VOR name  Freq  Var
UKWr106/28.3BOWIE VORTAC117.1506E
FUZr342/29.0RANGER VORTAC115.7006E
TTTr331/32.2MAVERICK VOR/DME113.1006E
CVEr319/34.5COWBOY VOR/DME116.2006E

 
NDB name  Hdg/Dist  Freq  Var  ID
PINCK310/6.925704EDT -.. -

Airport Services

Runway Information

Runway 17/35

Dimensions: 2300 x 60 ft. / 701 x 18 m
Surface: turf
RUNWAY 17  RUNWAY 35
Traffic pattern: leftright

Airport Ownership and Management from official FAA records

Ownership: Privately-owned
Owner: JAMES A. GLASS
10248 FM 455 W.
SANGER, TX 76266
Phone 940-458-4217
Manager: JAMES A. GLASS
10248 FM 455 W.
SANGER, TX 76266
Phone 940-458-4217

Airport Operational Statistics

Aircraft based on the field: 2
Single engine airplanes: 2
    

Additional Remarks

FOR CD CTC REGIONAL APCH AT 972-615-2799.

Instrument Procedures

There are no published instrument procedures at TS74.

Some nearby airports with instrument procedures:

KDTO - Denton Enterprise Airport (11 nm SE)
KLUD - Decatur Municipal Airport (16 nm SW)
KGLE - Gainesville Municipal Airport (18 nm N)
KAFW - Fort Worth Alliance Airport (22 nm S)
4T2 - Kenneth Copeland Airport (25 nm SW)
 
Loc | Ops | Rwys | IFR | FBO | Links
Com | Nav | Svcs | Stats | Notes

City of Fort Worth
 
Area around TS74 (Glass Airport)
 
Road maps at: MapQuest Bing Google
 
Aerial photo
No photo
 
Sectional chart

 
Airport distance calculator
Flying to Glass Airport? Find the distance to fly.

From to TS74

Sunrise and sunset
Times for 19-Oct-2021
 Local
(UTC-5)
 Zulu
(UTC)
Morning civil twilight07:1312:13
Sunrise07:3812:38
Sunset18:5023:50
Evening civil twilight19:1600:16

Current date and time
Zulu (UTC)  19-Oct-2021 16:05:09
Local (UTC-5)  19-Oct-2021 11:05:09
 
METAR
KDTO 
11nm SE 
191553Z 17015KT 10SM CLR 22/13 A3007 RMK AO2 SLP177 T02220133
KLUD 
16nm SW 
118.22 940-927-2365
191555Z AUTO 15011G17KT 10SM CLR 20/13 A3006 RMK AO2 T02000131
KGLE 
18nm N 
191555Z AUTO 17011G16KT 10SM CLR 21/12 A3009 RMK AO2 T02080120
TAF
KAFW 
24nm S 
191120Z 1912/2012 16008KT P6SM BKN250 FM191800 17013G23KT P6SM SCT250 FM200000 17015KT P6SM FEW250
NOTAMs
Click for the latest NOTAMs
NOTAMs are issued by the DoD/FAA and will open in a separate window not controlled by AirNav.

 

 
 

Would you like to see your business listed on this page?

 If your business provides an interesting product or service to pilots, flight crews, aircraft, or users of the Glass Airport, you should consider listing it here.  To start the listing process, click on the button below
 
Add a business
 

Other Pages about Glass Airport

Update a link
 
Copyright © AirNav, LLC. All rights reserved. Privacy Policy  Contact